KBGM

Greater Binghamton / Edwin A Link Field Airport

Binghamton, New York, USA
KBGM 221120Z 2212/2312 32010KT P6SM BKN015 FM221400 VRB03KT P6SM SCT020 FM222000 16005KT P6SM SCT200 FM230300 18011KT P6SM BKN250 WS020/21040KT
Issued Valid From Valid To
Jan-22 @ 11:20 UTC
(6 hours ago)
Jan-22 @ 12:00 UTC
(5 hours ago)
Jan-23 @ 12:00 UTC
(in 19 hours)
Expired Click to View Jan-22 @ 12:00 to Jan-22 @ 14:00
KBGM 221120Z 2212/2312 32010KT P6SM BKN015
Wind Visibility Clouds
320° at 10 knots Greater than 6 miles
  • Broken at 1,500' AGL
From Jan-22 @ 14:00 to Jan-22 @ 20:00
FM221400 VRB03KT P6SM SCT020
Wind Visibility Clouds
Variable at 3 knots Greater than 6 miles
  • Scattered at 2,000' AGL
From Jan-22 @ 20:00 to Jan-23 @ 03:00
FM222000 16005KT P6SM SCT200
Wind Visibility Clouds
160° at 5 knots Greater than 6 miles
  • Scattered at 20,000' AGL
From Jan-23 @ 03:00 to Jan-23 @ 12:00
FM230300 18011KT P6SM BKN250 WS020/21040KT
Wind Visibility Clouds
180° at 11 knots
 Wind shear 2,000' AGL from 210° at 40 knots
Greater than 6 miles
  • Broken at 25,000' AGL
KBGM 221120Z 2212/2312 32010KT P6SM BKN015 FM221400 VRB03KT P6SM SCT020 FM222000 16005KT P6SM SCT200 FM230300 18011KT P6SM BKN250 WS020/21040KT
Issued Jan-22 @ 11:20 UTC
(6 hours ago)
Valid From Jan-22 @ 12:00 UTC
(5 hours ago)
Valid To Jan-23 @ 12:00 UTC
(in 19 hours)
Jan-22 @ 12:00 - Jan-22 @ 14:00
Wind Visibility
320° at 10 knots Greater than 6 miles
Clouds
  • Broken at 1,500' AGL
From Jan-22 @ 14:00 - Jan-22 @ 20:00
Wind Visibility
Variable at 3 knots Greater than 6 miles
Clouds
  • Scattered at 2,000' AGL
From Jan-22 @ 20:00 - Jan-23 @ 03:00
Wind Visibility
160° at 5 knots Greater than 6 miles
Clouds
  • Scattered at 20,000' AGL
From Jan-23 @ 03:00 - Jan-23 @ 12:00
Wind Visibility
180° at 11 knots Greater than 6 miles
Clouds
  • Broken at 25,000' AGL